createdAt,value
2019-04-28T00:00:08.726Z,1010.86
2019-04-28T00:01:08.697Z,1010.87
2019-04-28T00:02:08.666Z,1010.82
2019-04-28T00:03:08.636Z,1010.83
2019-04-28T00:04:08.617Z,1010.90
2019-04-28T00:05:08.581Z,1010.87
2019-04-28T00:06:08.550Z,1010.90
2019-04-28T00:07:08.525Z,1010.90
2019-04-28T00:08:08.496Z,1010.87
2019-04-28T00:09:08.463Z,1010.90
2019-04-28T00:10:08.435Z,1010.96
2019-04-28T00:11:08.419Z,1010.90
2019-04-28T00:12:08.377Z,1010.84
2019-04-28T00:13:08.350Z,1010.90
2019-04-28T00:14:08.586Z,1010.90
2019-04-28T00:15:08.291Z,1010.91
2019-04-28T00:16:08.262Z,1010.88
2019-04-28T00:17:08.233Z,1010.89
2019-04-28T00:18:08.204Z,1010.91
2019-04-28T00:19:08.177Z,1010.95
2019-04-28T00:20:08.148Z,1010.87
2019-04-28T00:21:08.119Z,1010.91
2019-04-28T00:22:08.089Z,1010.95
2019-04-28T00:23:08.071Z,1010.91
2019-04-28T00:24:08.033Z,1010.94
2019-04-28T00:25:08.002Z,1010.93
2019-04-28T00:26:07.974Z,1010.95
2019-04-28T00:27:07.946Z,1010.99
2019-04-28T00:28:07.915Z,1010.97
2019-04-28T00:29:07.888Z,1010.98
2019-04-28T00:30:07.871Z,1010.97
2019-04-28T00:31:07.838Z,1010.99
2019-04-28T00:32:07.803Z,1011.02
2019-04-28T00:33:07.771Z,1011.01
2019-04-28T00:34:07.743Z,1010.99
2019-04-28T00:35:07.716Z,1011.02
2019-04-28T00:36:07.685Z,1011.01
2019-04-28T00:37:07.657Z,1011.04
2019-04-28T00:38:07.629Z,1011.02
2019-04-28T00:39:07.599Z,1011.07
2019-04-28T00:40:07.570Z,1011.08
2019-04-28T00:41:07.543Z,1011.01
2019-04-28T00:42:07.512Z,1011.06
2019-04-28T00:43:07.490Z,1011.08
2019-04-28T00:44:07.459Z,1011.06
2019-04-28T00:45:07.427Z,1011.08
2019-04-28T00:46:07.397Z,1011.05
2019-04-28T00:47:07.377Z,1011.07
2019-04-28T00:48:07.339Z,1011.05
2019-04-28T00:49:07.310Z,1011.06
2019-04-28T00:50:07.283Z,1010.98
2019-04-28T00:51:07.251Z,1011.01
2019-04-28T00:52:07.223Z,1010.98
2019-04-28T00:53:07.194Z,1011.03
2019-04-28T00:54:07.168Z,1011.03
2019-04-28T00:55:07.137Z,1010.98
2019-04-28T00:56:07.111Z,1011.02
2019-04-28T00:57:07.084Z,1011.09
2019-04-28T00:58:07.049Z,1011.00
2019-04-28T00:59:07.022Z,1011.00
2019-04-28T01:00:06.993Z,1011.01
2019-04-28T01:01:06.964Z,1011.06
2019-04-28T01:02:06.934Z,1011.09
2019-04-28T01:03:06.905Z,1010.99
2019-04-28T01:04:06.876Z,1011.09
2019-04-28T01:05:06.847Z,1011.04
2019-04-28T01:06:06.821Z,1011.09
2019-04-28T01:07:06.789Z,1011.08
2019-04-28T01:08:06.759Z,1011.08
2019-04-28T01:09:06.734Z,1011.05
2019-04-28T01:10:06.702Z,1011.09
2019-04-28T01:11:06.677Z,1011.01
2019-04-28T01:12:06.644Z,1011.05
2019-04-28T01:13:06.616Z,1011.02
2019-04-28T01:14:06.588Z,1011.07
2019-04-28T01:15:06.559Z,1011.07
2019-04-28T01:16:06.534Z,1011.05
2019-04-28T01:17:06.500Z,1011.06
2019-04-28T01:18:06.469Z,1011.12
2019-04-28T01:19:06.442Z,1011.12
2019-04-28T01:20:06.413Z,1011.04
2019-04-28T01:21:06.384Z,1011.10
2019-04-28T01:22:06.354Z,1011.15
2019-04-28T01:23:06.324Z,1011.08
2019-04-28T01:24:06.297Z,1011.13
2019-04-28T01:25:06.270Z,1011.10
2019-04-28T01:26:06.237Z,1011.06
2019-04-28T01:27:06.213Z,1011.15
2019-04-28T01:28:06.181Z,1011.14
2019-04-28T01:29:06.152Z,1011.16
2019-04-28T01:30:08.651Z,1011.17
2019-04-28T01:31:06.101Z,1011.14
2019-04-28T01:32:06.070Z,1011.19
2019-04-28T01:33:06.036Z,1011.10
2019-04-28T01:34:06.006Z,1011.16
2019-04-28T01:35:05.981Z,1011.16
2019-04-28T01:36:05.953Z,1011.22
2019-04-28T01:37:05.924Z,1011.23
2019-04-28T01:38:05.892Z,1011.21
2019-04-28T01:39:05.864Z,1011.19
2019-04-28T01:40:05.834Z,1011.21
2019-04-28T01:41:05.805Z,1011.23
2019-04-28T01:42:05.779Z,1011.28
2019-04-28T01:43:05.746Z,1011.29
2019-04-28T01:44:05.723Z,1011.23
2019-04-28T01:45:05.695Z,1011.27
2019-04-28T01:46:05.659Z,1011.30
2019-04-28T01:47:05.631Z,1011.30
2019-04-28T01:48:05.605Z,1011.33
2019-04-28T01:49:05.572Z,1011.31
2019-04-28T01:50:05.543Z,1011.30
2019-04-28T01:51:05.526Z,1011.33
2019-04-28T01:52:05.490Z,1011.33
2019-04-28T01:53:05.457Z,1011.37
2019-04-28T01:54:05.432Z,1011.39
2019-04-28T01:55:05.398Z,1011.43
2019-04-28T01:56:05.373Z,1011.44
2019-04-28T01:57:05.340Z,1011.37
2019-04-28T01:58:05.312Z,1011.44
2019-04-28T01:59:05.282Z,1011.46
2019-04-28T02:00:05.253Z,1011.47
2019-04-28T02:01:05.249Z,1011.51
2019-04-28T02:02:05.197Z,1011.49
2019-04-28T02:03:05.166Z,1011.47
2019-04-28T02:04:05.140Z,1011.49
2019-04-28T02:05:05.107Z,1011.47
2019-04-28T02:06:05.086Z,1011.46
2019-04-28T02:07:05.063Z,1011.54
2019-04-28T02:08:05.020Z,1011.50
2019-04-28T02:09:04.996Z,1011.52
2019-04-28T02:10:04.966Z,1011.49
2019-04-28T02:11:04.937Z,1011.51
2019-04-28T02:12:04.907Z,1011.55
2019-04-28T02:13:04.880Z,1011.51
2019-04-28T02:14:04.846Z,1011.52
2019-04-28T02:15:04.819Z,1011.53
2019-04-28T02:16:04.787Z,1011.47
2019-04-28T02:17:04.763Z,1011.36
2019-04-28T02:18:04.729Z,1011.41
2019-04-28T02:19:04.703Z,1011.46
2019-04-28T02:20:04.672Z,1011.48
2019-04-28T02:21:04.646Z,1011.48
2019-04-28T02:22:04.615Z,1011.52
2019-04-28T02:23:04.590Z,1011.46
2019-04-28T02:24:04.556Z,1011.51
2019-04-28T02:25:04.528Z,1011.51
2019-04-28T02:26:04.514Z,1011.51
2019-04-28T02:27:04.468Z,1011.55
2019-04-28T02:28:04.440Z,1011.47
2019-04-28T02:29:04.409Z,1011.51
2019-04-28T02:30:04.382Z,1011.56
2019-04-28T02:31:04.358Z,1011.60
2019-04-28T02:32:04.325Z,1011.58
2019-04-28T02:33:04.295Z,1011.55
2019-04-28T02:34:04.265Z,1011.57
2019-04-28T02:35:04.245Z,1011.63
2019-04-28T02:36:04.209Z,1011.57
2019-04-28T02:37:04.177Z,1011.58
2019-04-28T02:38:04.150Z,1011.60
2019-04-28T02:39:04.121Z,1011.53
2019-04-28T02:40:04.104Z,1011.57
2019-04-28T02:41:04.060Z,1011.56
2019-04-28T02:42:04.033Z,1011.64
2019-04-28T02:43:04.007Z,1011.60
2019-04-28T02:44:03.974Z,1011.58
2019-04-28T02:45:03.960Z,1011.64
2019-04-28T02:46:03.915Z,1011.64
2019-04-28T02:47:03.887Z,1011.51
2019-04-28T02:48:03.859Z,1011.60
2019-04-28T02:49:03.835Z,1011.58
2019-04-28T02:50:03.799Z,1011.58
2019-04-28T02:51:03.770Z,1011.57
2019-04-28T02:52:03.743Z,1011.59
2019-04-28T02:53:03.713Z,1011.62
2019-04-28T02:54:03.682Z,1011.57
2019-04-28T02:55:03.836Z,1011.60
2019-04-28T02:56:03.627Z,1011.57
2019-04-28T02:57:03.598Z,1011.58
2019-04-28T02:58:03.566Z,1011.68
2019-04-28T02:59:03.552Z,1011.66
2019-04-28T03:00:03.517Z,1011.67
2019-04-28T03:01:15.252Z,1011.65
2019-04-28T03:02:03.455Z,1011.71
2019-04-28T03:03:03.420Z,1011.78
2019-04-28T03:04:03.399Z,1011.70
2019-04-28T03:05:03.365Z,1011.77
2019-04-28T03:06:03.331Z,1011.84
2019-04-28T03:07:03.303Z,1011.84
2019-04-28T03:08:03.272Z,1011.87
2019-04-28T03:09:03.246Z,1011.82
2019-04-28T03:10:04.026Z,1011.78
2019-04-28T03:11:03.195Z,1011.84
2019-04-28T03:12:03.157Z,1011.85
2019-04-28T03:13:03.129Z,1011.83
2019-04-28T03:14:03.099Z,1011.75
2019-04-28T03:15:03.068Z,1011.81
2019-04-28T03:16:03.038Z,1011.87
2019-04-28T03:17:03.012Z,1011.81
2019-04-28T03:18:02.985Z,1011.83
2019-04-28T03:19:02.957Z,1011.89
2019-04-28T03:20:02.923Z,1011.84
2019-04-28T03:21:04.374Z,1011.83
2019-04-28T03:22:02.864Z,1011.79
2019-04-28T03:23:02.838Z,1011.85
2019-04-28T03:24:02.855Z,1011.82
2019-04-28T03:25:02.779Z,1011.84
2019-04-28T03:26:02.751Z,1011.89
2019-04-28T03:27:03.546Z,1011.87
2019-04-28T03:28:02.687Z,1011.86
2019-04-28T03:29:02.659Z,1011.82
2019-04-28T03:30:02.629Z,1011.87
2019-04-28T03:31:22.078Z,1011.80
2019-04-28T03:32:22.843Z,1011.84
2019-04-28T03:33:11.136Z,1011.89
2019-04-28T03:34:03.920Z,1011.85
2019-04-28T03:35:03.751Z,1011.90
2019-04-28T03:41:41.750Z,1011.77
2019-04-28T03:42:41.524Z,1011.86
2019-04-28T03:43:41.486Z,1011.86
2019-04-28T03:44:41.740Z,1011.88
2019-04-28T03:45:41.427Z,1011.84
2019-04-28T03:46:41.467Z,1011.87
2019-04-28T03:47:41.368Z,1011.90
2019-04-28T03:48:41.336Z,1011.94
2019-04-28T03:49:43.327Z,1011.91
2019-04-28T03:50:41.624Z,1011.87
2019-04-28T03:51:41.264Z,1011.94
2019-04-28T03:52:41.615Z,1011.93
2019-04-28T03:53:41.260Z,1011.90
2019-04-28T03:54:41.290Z,1011.93
2019-04-28T03:55:41.765Z,1011.95
2019-04-28T03:56:41.359Z,1011.86
2019-04-28T03:57:41.387Z,1011.96
2019-04-28T03:58:41.041Z,1011.88
2019-04-28T03:59:43.471Z,1011.89
2019-04-28T04:00:41.102Z,1011.95
2019-04-28T04:01:55.975Z,1011.88
2019-04-28T04:02:41.354Z,1011.94
2019-04-28T04:03:41.758Z,1011.99
2019-04-28T04:04:41.616Z,1011.98
2019-04-28T04:05:40.893Z,1011.96
2019-04-28T04:06:40.995Z,1011.94
2019-04-28T04:07:43.144Z,1012.00
2019-04-28T04:08:41.043Z,1012.01
2019-04-28T04:09:41.390Z,1012.03
2019-04-28T04:10:40.684Z,1012.03
2019-04-28T04:11:41.122Z,1012.04
2019-04-28T04:12:41.313Z,1012.05
2019-04-28T04:13:41.604Z,1012.05
2019-04-28T04:14:41.184Z,1011.99
2019-04-28T04:15:41.243Z,1012.03
2019-04-28T04:16:40.807Z,1012.04
2019-04-28T04:17:41.337Z,1012.03
2019-04-28T04:18:40.896Z,1012.06
2019-04-28T04:19:40.857Z,1012.04
2019-04-28T04:20:41.147Z,1012.07
2019-04-28T04:21:40.863Z,1012.08
2019-04-28T04:22:41.202Z,1012.09
2019-04-28T04:23:41.040Z,1012.09
2019-04-28T04:24:40.618Z,1012.08
2019-04-28T04:25:41.614Z,1012.12
2019-04-28T04:26:40.907Z,1012.06
2019-04-28T04:27:40.687Z,1012.07
2019-04-28T04:28:41.580Z,1012.09
2019-04-28T04:29:43.601Z,1012.11
2019-04-28T04:30:40.924Z,1012.06
2019-04-28T04:31:41.350Z,1012.15
2019-04-28T04:32:41.076Z,1012.17
2019-04-28T04:33:41.039Z,1012.10
2019-04-28T04:34:40.722Z,1012.09
2019-04-28T04:35:41.198Z,1012.16
2019-04-28T04:36:41.687Z,1012.17
2019-04-28T04:37:40.757Z,1012.14
2019-04-28T04:38:43.008Z,1012.09
2019-04-28T04:39:40.737Z,1012.15
2019-04-28T04:40:41.283Z,1012.16
2019-04-28T04:41:40.915Z,1012.25
2019-04-28T04:42:40.513Z,1012.23
2019-04-28T04:43:41.591Z,1012.22
2019-04-28T04:44:41.527Z,1012.28
2019-04-28T04:45:40.491Z,1012.29
2019-04-28T04:46:41.438Z,1012.26
2019-04-28T04:47:40.638Z,1012.22
2019-04-28T04:48:40.785Z,1012.31
2019-04-28T04:49:40.485Z,1012.32
2019-04-28T04:50:41.105Z,1012.31
2019-04-28T04:51:43.320Z,1012.30
2019-04-28T04:52:40.244Z,1012.37
2019-04-28T04:53:40.787Z,1012.41
2019-04-28T04:54:40.158Z,1012.36
2019-04-28T04:55:40.822Z,1012.32
2019-04-28T04:56:40.151Z,1012.37
2019-04-28T04:57:40.777Z,1012.43
2019-04-28T04:58:40.729Z,1012.41
2019-04-28T04:59:40.108Z,1012.46
2019-04-28T05:00:40.415Z,1012.50
2019-04-28T05:01:40.735Z,1012.41
2019-04-28T05:02:39.993Z,1012.48
2019-04-28T05:03:39.707Z,1012.46
2019-04-28T05:04:39.579Z,1012.52
2019-04-28T05:05:40.382Z,1012.57
2019-04-28T05:06:39.792Z,1012.56
2019-04-28T05:07:39.675Z,1012.49
2019-04-28T05:08:39.961Z,1012.53
2019-04-28T05:09:39.506Z,1012.54
2019-04-28T05:10:40.378Z,1012.58
2019-04-28T05:11:40.045Z,1012.61
2019-04-28T05:12:40.387Z,1012.55
2019-04-28T05:13:39.903Z,1012.64
2019-04-28T05:14:39.506Z,1012.59
2019-04-28T05:15:40.059Z,1012.60
2019-04-28T05:16:39.803Z,1012.61
2019-04-28T05:17:40.208Z,1012.64
2019-04-28T05:18:39.336Z,1012.66
2019-04-28T05:19:40.148Z,1012.69
2019-04-28T05:20:40.366Z,1012.69
2019-04-28T05:21:40.132Z,1012.74
2019-04-28T05:22:39.955Z,1012.70
2019-04-28T05:23:40.007Z,1012.71
2019-04-28T05:24:40.297Z,1012.78
2019-04-28T05:25:39.563Z,1012.83
2019-04-28T05:26:42.514Z,1012.80
2019-04-28T05:27:39.941Z,1012.85
2019-04-28T05:28:44.010Z,1012.84
2019-04-28T05:29:39.834Z,1012.86
2019-04-28T05:30:39.807Z,1012.85
2019-04-28T05:31:40.106Z,1012.84
2019-04-28T05:32:44.610Z,1012.83
2019-04-28T05:33:39.599Z,1012.89
2019-04-28T05:34:41.504Z,1012.87
2019-04-28T05:35:39.696Z,1012.84
2019-04-28T05:36:42.524Z,1012.87
2019-04-28T05:37:38.119Z,1012.89
2019-04-28T05:38:38.090Z,1012.88
2019-04-28T05:39:40.330Z,1012.94
2019-04-28T05:40:39.809Z,1012.92
2019-04-28T05:41:39.871Z,1012.94
2019-04-28T05:42:39.403Z,1012.98
2019-04-28T05:43:37.943Z,1012.95
2019-04-28T05:44:37.911Z,1013.01
2019-04-28T05:45:39.610Z,1013.00
2019-04-28T05:46:37.854Z,1013.02
2019-04-28T05:47:37.824Z,1013.07
2019-04-28T05:48:37.793Z,1013.07
2019-04-28T05:49:39.587Z,1013.14
2019-04-28T05:50:37.740Z,1013.15
2019-04-28T05:51:37.709Z,1013.16
2019-04-28T05:52:37.678Z,1013.12
2019-04-28T05:53:37.653Z,1013.09
2019-04-28T05:54:37.618Z,1013.15
2019-04-28T05:55:39.419Z,1013.17
2019-04-28T05:56:37.559Z,1013.14
2019-04-28T05:57:37.532Z,1013.10
2019-04-28T05:58:37.508Z,1013.05
2019-04-28T05:59:37.474Z,1013.11
2019-04-28T06:00:37.447Z,1013.11
2019-04-28T06:02:21.910Z,1013.17
2019-04-28T06:03:20.036Z,1013.08
2019-04-28T06:04:19.954Z,1013.13
2019-04-28T06:05:20.067Z,1013.14
2019-04-28T06:06:20.454Z,1013.12
2019-04-28T06:07:20.236Z,1013.19
2019-04-28T06:08:20.189Z,1013.19
2019-04-28T06:09:20.348Z,1013.23
2019-04-28T06:10:20.244Z,1013.20
2019-04-28T06:11:20.247Z,1013.20
2019-04-28T06:12:20.132Z,1013.21
2019-04-28T06:13:20.230Z,1013.24
2019-04-28T06:14:19.882Z,1013.32
2019-04-28T06:15:20.427Z,1013.29
2019-04-28T06:16:19.581Z,1013.29
2019-04-28T06:17:20.641Z,1013.37
2019-04-28T06:18:20.601Z,1013.30
2019-04-28T06:19:20.192Z,1013.33
2019-04-28T06:20:20.175Z,1013.35
2019-04-28T06:21:19.245Z,1013.39
2019-04-28T06:22:19.219Z,1013.35
2019-04-28T06:23:19.187Z,1013.39
2019-04-28T06:24:19.158Z,1013.37
2019-04-28T06:25:19.228Z,1013.41
2019-04-28T06:26:19.098Z,1013.43
2019-04-28T06:27:19.100Z,1013.44
2019-04-28T06:28:19.042Z,1013.48
2019-04-28T06:29:19.014Z,1013.50
2019-04-28T06:30:18.980Z,1013.62
2019-04-28T06:31:18.951Z,1013.56
2019-04-28T06:32:18.923Z,1013.59
2019-04-28T06:33:18.894Z,1013.63
2019-04-28T06:34:18.871Z,1013.62
2019-04-28T06:35:18.836Z,1013.66
2019-04-28T06:36:18.804Z,1013.67
2019-04-28T06:37:18.783Z,1013.70
2019-04-28T06:38:18.747Z,1013.70
2019-04-28T06:39:18.725Z,1013.72
2019-04-28T06:40:18.687Z,1013.66
2019-04-28T06:41:18.663Z,1013.71
2019-04-28T06:42:18.630Z,1013.74
2019-04-28T06:43:18.604Z,1013.71
2019-04-28T06:44:18.569Z,1013.66
2019-04-28T06:45:18.542Z,1013.68
2019-04-28T06:46:18.510Z,1013.70
2019-04-28T06:47:18.482Z,1013.70
2019-04-28T06:48:18.454Z,1013.78
2019-04-28T06:49:18.429Z,1013.81
2019-04-28T06:50:18.394Z,1013.79
2019-04-28T06:51:18.365Z,1013.80
2019-04-28T06:52:18.537Z,1013.79
2019-04-28T06:53:18.317Z,1013.88
2019-04-28T06:54:18.281Z,1013.83
2019-04-28T06:55:18.248Z,1013.83
2019-04-28T06:56:18.222Z,1013.82
2019-04-28T06:57:18.192Z,1013.79
2019-04-28T06:58:18.163Z,1013.87
2019-04-28T06:59:18.131Z,1013.85
2019-04-28T07:00:18.118Z,1013.84
2019-04-28T07:01:18.074Z,1013.84
2019-04-28T07:02:18.043Z,1013.84
2019-04-28T07:03:23.220Z,1013.86
2019-04-28T07:04:17.985Z,1013.89
2019-04-28T07:05:17.954Z,1013.93
2019-04-28T07:06:17.925Z,1013.88
2019-04-28T07:07:17.898Z,1013.90
2019-04-28T07:08:17.869Z,1013.90
2019-04-28T07:09:17.853Z,1013.93
2019-04-28T07:10:17.812Z,1013.91
2019-04-28T07:11:17.781Z,1013.92
2019-04-28T07:12:17.752Z,1013.95
2019-04-28T07:13:20.454Z,1014.00
2019-04-28T07:14:17.693Z,1013.98
2019-04-28T07:15:17.673Z,1014.03
2019-04-28T07:16:17.635Z,1014.05
2019-04-28T07:17:17.608Z,1014.04
2019-04-28T07:18:17.576Z,1014.09
2019-04-28T07:19:17.547Z,1014.06
2019-04-28T07:20:17.516Z,1014.09
2019-04-28T07:21:17.490Z,1014.08
2019-04-28T07:22:17.460Z,1014.17
2019-04-28T07:23:17.490Z,1014.16
2019-04-28T07:24:17.402Z,1014.18
2019-04-28T07:25:17.369Z,1014.19
2019-04-28T07:26:17.341Z,1014.17
2019-04-28T07:27:17.313Z,1014.20
2019-04-28T07:28:17.289Z,1014.25
2019-04-28T07:29:17.253Z,1014.24
2019-04-28T07:30:17.224Z,1014.14
2019-04-28T07:31:17.195Z,1014.32
2019-04-28T07:32:17.169Z,1014.32
2019-04-28T07:33:17.136Z,1014.23
2019-04-28T07:34:17.115Z,1014.34
2019-04-28T07:35:17.079Z,1014.30
2019-04-28T07:36:17.047Z,1014.30
2019-04-28T07:37:17.018Z,1014.26
2019-04-28T07:38:16.990Z,1014.29
2019-04-28T07:39:16.971Z,1014.23
2019-04-28T07:40:16.931Z,1014.28
2019-04-28T07:41:16.900Z,1014.33
2019-04-28T07:42:16.874Z,1014.31
2019-04-28T07:43:16.843Z,1014.26
2019-04-28T07:44:16.813Z,1014.34
2019-04-28T07:45:16.784Z,1014.37
2019-04-28T07:46:16.756Z,1014.40
2019-04-28T07:47:16.729Z,1014.48
2019-04-28T07:48:16.697Z,1014.45
2019-04-28T07:49:16.669Z,1014.53
2019-04-28T07:50:16.638Z,1014.46
2019-04-28T07:51:16.656Z,1014.49
2019-04-28T07:52:16.579Z,1014.47
2019-04-28T07:53:16.550Z,1014.42
2019-04-28T07:54:16.521Z,1014.41
2019-04-28T07:55:16.496Z,1014.41
2019-04-28T07:56:16.463Z,1014.44
2019-04-28T07:57:16.436Z,1014.40
2019-04-28T07:58:16.406Z,1014.38
2019-04-28T07:59:16.377Z,1014.49
2019-04-28T08:00:16.349Z,1014.45
2019-04-28T08:01:16.323Z,1014.55
2019-04-28T08:02:16.288Z,1014.44
2019-04-28T08:03:16.264Z,1014.50
2019-04-28T08:04:16.232Z,1014.59
2019-04-28T08:05:16.201Z,1014.58
2019-04-28T08:06:16.177Z,1014.49
2019-04-28T08:07:16.144Z,1014.57
2019-04-28T08:08:16.115Z,1014.62
2019-04-28T08:09:16.089Z,1014.64
2019-04-28T08:10:16.062Z,1014.72
2019-04-28T08:11:16.027Z,1014.68
2019-04-28T08:12:15.998Z,1014.64
2019-04-28T08:13:15.973Z,1014.73
2019-04-28T08:14:15.940Z,1014.75
2019-04-28T08:15:15.917Z,1014.78
2019-04-28T08:16:15.883Z,1014.98
2019-04-28T08:17:15.851Z,1014.83
2019-04-28T08:18:15.830Z,1014.95
2019-04-28T08:19:15.795Z,1014.94
2019-04-28T08:20:15.764Z,1015.00
2019-04-28T08:21:15.736Z,1015.06
2019-04-28T08:22:15.706Z,1014.95
2019-04-28T08:23:15.679Z,1015.03
2019-04-28T08:24:15.649Z,1014.95
2019-04-28T08:25:15.625Z,1015.13
2019-04-28T08:26:15.592Z,1015.12
2019-04-28T08:27:15.614Z,1015.06
2019-04-28T08:28:15.538Z,1015.06
2019-04-28T08:29:15.503Z,1015.04
2019-04-28T08:30:15.473Z,1015.21
2019-04-28T08:31:15.444Z,1015.25
2019-04-28T08:32:15.416Z,1015.16
2019-04-28T08:33:15.385Z,1015.10
2019-04-28T08:34:15.357Z,1015.16
2019-04-28T08:35:15.329Z,1015.21
2019-04-28T08:36:15.300Z,1015.12
2019-04-28T08:37:15.269Z,1015.15
2019-04-28T08:38:15.246Z,1015.07
2019-04-28T08:39:15.213Z,1015.08
2019-04-28T08:40:15.183Z,1015.24
2019-04-28T08:41:15.153Z,1015.28
2019-04-28T08:42:15.125Z,1015.19
2019-04-28T08:43:15.095Z,1015.18
2019-04-28T08:44:15.065Z,1015.28
2019-04-28T08:45:15.041Z,1015.28
2019-04-28T08:46:15.007Z,1015.37
2019-04-28T08:47:14.980Z,1015.29
2019-04-28T08:48:14.950Z,1015.40
2019-04-28T08:49:14.920Z,1015.40
2019-04-28T08:50:14.943Z,1015.40
2019-04-28T08:51:14.868Z,1015.38
2019-04-28T08:52:14.834Z,1015.44
2019-04-28T08:53:14.819Z,1015.40
2019-04-28T08:54:14.779Z,1015.53
2019-04-28T08:55:14.747Z,1015.58
2019-04-28T08:56:14.716Z,1015.56
2019-04-28T08:57:14.693Z,1015.58
2019-04-28T08:58:14.660Z,1015.48
2019-04-28T08:59:14.645Z,1015.59
2019-04-28T09:27:05.530Z,1015.99
2019-04-28T09:28:05.296Z,1015.87
2019-04-28T09:29:05.273Z,1015.97
2019-04-28T09:30:05.240Z,1015.93
2019-04-28T10:21:57.329Z,1016.75
2019-04-28T15:30:17.244Z,1017.98
2019-04-28T15:31:17.226Z,1018.03
2019-04-28T15:32:16.990Z,1017.87
2019-04-28T15:33:16.968Z,1017.80
2019-04-28T15:34:16.946Z,1017.75
2019-04-28T15:35:16.925Z,1017.64
2019-04-28T15:36:17.102Z,1017.56
2019-04-28T15:39:24.255Z,1017.55
2019-04-28T15:40:24.028Z,1017.56
2019-04-28T15:41:24.005Z,1017.49
2019-04-28T15:42:26.804Z,1017.72
2019-04-28T15:49:45.680Z,1017.38
2019-04-28T17:11:18.117Z,1017.80
2019-04-28T17:12:17.884Z,1017.79
2019-04-28T17:13:17.856Z,1017.79
2019-04-28T17:14:17.825Z,1017.79
2019-04-28T17:15:17.798Z,1017.77
2019-04-28T17:16:17.774Z,1017.78
2019-04-28T17:17:17.746Z,1017.72
2019-04-28T17:18:17.715Z,1017.73
2019-04-28T17:19:17.691Z,1017.79
2019-04-28T17:20:17.666Z,1017.80
2019-04-28T17:21:17.635Z,1017.78
2019-04-28T17:22:17.609Z,1017.84
2019-04-28T17:23:17.581Z,1017.78
2019-04-28T17:24:17.563Z,1017.82
2019-04-28T17:25:17.526Z,1017.82
2019-04-28T17:26:17.502Z,1017.84
2019-04-28T17:27:17.475Z,1017.81
2019-04-28T17:28:17.445Z,1017.83
2019-04-28T17:29:17.418Z,1017.82
2019-04-28T17:30:17.391Z,1017.78
2019-04-28T17:31:17.363Z,1017.80
2019-04-28T17:32:17.346Z,1017.81
2019-04-28T17:33:17.310Z,1017.85
2019-04-28T17:34:17.282Z,1017.88
2019-04-28T17:35:17.255Z,1017.87
2019-04-28T17:36:17.229Z,1017.91
2019-04-28T17:37:17.200Z,1017.88
2019-04-28T17:38:17.176Z,1017.94
2019-04-28T17:39:17.148Z,1017.93
2019-04-28T17:40:17.120Z,1017.94
2019-04-28T17:41:17.093Z,1017.93
2019-04-28T17:42:17.065Z,1017.95
2019-04-28T17:43:17.038Z,1017.94
2019-04-28T17:44:17.426Z,1017.94
2019-04-28T17:45:16.986Z,1017.98
2019-04-28T17:46:16.962Z,1017.96
2019-04-28T17:47:16.938Z,1017.93
2019-04-28T17:48:16.902Z,1017.96
2019-04-28T17:49:16.876Z,1017.93
2019-04-28T17:50:16.850Z,1017.99
2019-04-28T17:51:16.823Z,1017.92
2019-04-28T17:52:16.799Z,1018.03
2019-04-28T17:53:16.767Z,1018.02
2019-04-28T17:54:16.741Z,1018.08
2019-04-28T17:55:16.711Z,1018.11
2019-04-28T17:56:16.684Z,1018.08
2019-04-28T17:57:16.661Z,1018.09
2019-04-28T17:58:16.630Z,1018.15
2019-04-28T17:59:16.603Z,1018.13
2019-04-28T18:13:01.167Z,1018.14
2019-04-28T18:13:59.541Z,1018.20
2019-04-28T18:15:42.102Z,1018.21
2019-04-28T18:16:41.876Z,1018.19
2019-04-28T18:21:13.985Z,1018.23
2019-04-28T18:22:13.754Z,1018.20
2019-04-28T18:23:13.724Z,1018.21
2019-04-28T18:24:13.697Z,1018.28
2019-04-28T18:25:13.668Z,1018.24
2019-04-28T18:26:13.640Z,1018.26
2019-04-28T18:27:13.814Z,1018.31
2019-04-28T18:28:13.582Z,1018.35
2019-04-28T18:29:13.555Z,1018.29
2019-04-28T18:30:13.527Z,1018.26
2019-04-28T18:31:13.499Z,1018.31
2019-04-28T18:32:13.473Z,1018.31
2019-04-28T18:33:13.443Z,1018.32
2019-04-28T18:34:13.413Z,1018.30
2019-04-28T18:35:13.387Z,1018.29
2019-04-28T18:36:13.356Z,1018.32
2019-04-28T18:37:13.330Z,1018.34
2019-04-28T18:38:13.304Z,1018.38
2019-04-28T18:39:13.273Z,1018.37
2019-04-28T18:40:13.260Z,1018.41
2019-04-28T18:41:13.216Z,1018.46
2019-04-28T18:42:14.843Z,1018.44
2019-04-28T18:43:13.163Z,1018.47
2019-04-28T18:44:13.155Z,1018.48
2019-04-28T18:45:13.104Z,1018.49
2019-04-28T18:46:13.279Z,1018.50
2019-04-28T18:47:13.048Z,1018.54
2019-04-28T18:48:13.022Z,1018.50
2019-04-28T18:49:12.992Z,1018.51
2019-04-28T18:50:12.967Z,1018.51
2019-04-28T18:51:12.937Z,1018.51
2019-04-28T18:52:12.907Z,1018.57
2019-04-28T18:53:12.886Z,1018.56
2019-04-28T18:55:40.249Z,1018.56
2019-04-28T18:56:37.599Z,1018.59
2019-04-28T18:57:37.775Z,1018.60
2019-04-28T18:58:37.746Z,1018.58
2019-04-28T18:59:37.515Z,1018.64
2019-04-28T19:00:37.490Z,1018.65
2019-04-28T19:01:37.463Z,1018.62
2019-04-28T19:02:37.429Z,1018.67
2019-04-28T19:03:37.400Z,1018.70
2019-04-28T19:04:37.371Z,1018.70
2019-04-28T19:05:37.397Z,1018.70
2019-04-28T19:06:37.314Z,1018.72
2019-04-28T19:07:37.286Z,1018.71
2019-04-28T19:08:48.410Z,1018.73
2019-04-28T19:09:37.231Z,1018.73
2019-04-28T19:10:40.146Z,1018.71
2019-04-28T19:11:37.251Z,1018.72
2019-04-28T19:12:37.144Z,1018.78
2019-04-28T19:13:37.115Z,1018.74
2019-04-28T19:14:37.093Z,1018.76
2019-04-28T19:15:37.073Z,1018.73
2019-04-28T19:16:37.029Z,1018.76
2019-04-28T19:17:37.001Z,1018.78
2019-04-28T19:18:36.978Z,1018.75
2019-04-28T19:19:36.945Z,1018.75
2019-04-28T19:20:36.916Z,1018.80
2019-04-28T19:21:36.888Z,1018.80
2019-04-28T19:22:36.858Z,1018.81
2019-04-28T19:23:36.836Z,1018.85
2019-04-28T19:24:36.801Z,1018.82
2019-04-28T19:25:36.773Z,1018.85
2019-04-28T19:26:36.782Z,1018.79
2019-04-28T19:27:36.716Z,1018.90
2019-04-28T19:28:36.688Z,1018.87
2019-04-28T19:29:36.661Z,1018.85
2019-04-28T19:30:36.651Z,1018.89
2019-04-28T19:31:36.601Z,1018.93
2019-04-28T19:32:36.573Z,1018.92
2019-04-28T19:33:36.545Z,1018.99
2019-04-28T19:34:36.542Z,1018.98
2019-04-28T19:35:36.491Z,1018.97
2019-04-28T19:36:36.462Z,1018.95
2019-04-28T19:37:36.430Z,1018.99
2019-04-28T19:38:36.402Z,1019.00
2019-04-28T19:39:36.372Z,1018.98
2019-04-28T19:40:36.346Z,1019.05
2019-04-28T19:41:36.319Z,1019.03
2019-04-28T19:42:36.289Z,1019.06
2019-04-28T19:43:36.262Z,1019.08
2019-04-28T19:44:36.231Z,1019.05
2019-04-28T19:45:36.201Z,1019.05
2019-04-28T19:46:36.180Z,1019.05
2019-04-28T19:47:36.143Z,1019.07
2019-04-28T19:48:36.178Z,1019.07
2019-04-28T19:49:36.087Z,1019.06
2019-04-28T19:50:36.062Z,1019.03
2019-04-28T19:51:36.030Z,1019.10
2019-04-28T19:52:39.027Z,1019.09
2019-04-28T19:53:35.973Z,1019.06
2019-04-28T19:54:35.946Z,1019.07
2019-04-28T19:55:35.918Z,1019.05
2019-04-28T19:56:35.889Z,1019.08
2019-04-28T19:57:35.858Z,1019.08
2019-04-28T19:58:35.829Z,1019.05
2019-04-28T19:59:35.799Z,1019.08
2019-04-28T20:00:35.777Z,1019.12
2019-04-28T20:01:35.753Z,1019.09
2019-04-28T20:02:35.715Z,1019.08
2019-04-28T20:03:35.685Z,1019.07
2019-04-28T20:04:35.659Z,1019.05
2019-04-28T20:05:35.629Z,1019.09
2019-04-28T20:06:35.601Z,1019.04
2019-04-28T20:07:35.779Z,1019.07
2019-04-28T20:08:35.551Z,1019.06
2019-04-28T20:09:35.517Z,1019.13
2019-04-28T20:12:42.849Z,1019.10
2019-04-28T20:13:42.820Z,1019.13
2019-04-28T20:14:42.589Z,1019.07
2019-04-28T20:15:42.561Z,1019.11
2019-04-28T20:16:42.733Z,1019.10
2019-04-28T20:17:42.505Z,1019.10
2019-04-28T20:18:42.474Z,1019.13
2019-04-28T20:19:42.443Z,1019.17
2019-04-28T20:20:42.416Z,1019.25
2019-04-28T20:21:42.388Z,1019.18
2019-04-28T20:22:42.359Z,1019.20
2019-04-28T20:23:42.332Z,1019.23
2019-04-28T20:24:47.417Z,1019.26
2019-04-28T20:25:42.293Z,1019.26